Time;durP1;ratioP1;P1;durP2;ratioP2;P2;SDS_P1;SDS_P2;PMS_P1;PMS_P2;Temp;Humidity;BMP_temperature;BMP_pressure;BME280_temperature;BME280_humidity;BME280_pressure;Samples;Min_cycle;Max_cycle;Signal;HPM_P1;HPM_P2
2022/06/09 00:02:04;;;;;;;12.00;10.23;;;;;;;16.52;100.00;98927.28;5008678;28;20061;-55
2022/06/09 00:04:49;;;;;;;12.88;9.43;;;;;;;16.55;100.00;98924.44;5008842;28;20140;-54
2022/06/09 00:07:34;;;;;;;10.80;9.70;;;;;;;16.45;100.00;98920.69;5007406;28;20069;-55
2022/06/09 00:10:26;;;;;;;11.93;9.25;;;;;;;16.48;100.00;98910.78;5006293;28;20034;-55
2022/06/09 00:13:11;;;;;;;10.13;9.13;;;;;;;16.59;100.00;98910.91;5011512;28;20075;-55
2022/06/09 00:15:56;;;;;;;9.77;8.75;;;;;;;16.70;100.00;98910.22;5013749;28;20519;-54
2022/06/09 00:18:41;;;;;;;10.38;9.27;;;;;;;16.62;100.00;98907.25;5013291;28;20074;-55
2022/06/09 00:21:26;;;;;;;9.07;8.18;;;;;;;16.79;100.00;98911.47;5003943;28;20546;-54
2022/06/09 00:24:10;;;;;;;11.40;10.10;;;;;;;16.69;100.00;98905.06;5008384;28;20050;-55
2022/06/09 00:26:55;;;;;;;8.75;7.85;;;;;;;16.79;100.00;98895.59;5010377;28;20077;-54
2022/06/09 00:29:40;;;;;;;9.60;8.70;;;;;;;16.78;100.00;98878.06;5010965;28;20069;-54
2022/06/09 00:32:24;;;;;;;10.65;9.60;;;;;;;16.70;100.00;98880.31;5010220;28;20575;-55
2022/06/09 00:35:09;;;;;;;10.55;9.40;;;;;;;16.80;100.00;98870.84;5009891;28;20111;-55
2022/06/09 00:37:54;;;;;;;9.70;8.68;;;;;;;16.82;100.00;98867.16;5007948;28;20046;-55
2022/06/09 00:40:38;;;;;;;10.80;9.70;;;;;;;16.86;100.00;98862.53;5008306;28;20045;-55
2022/06/09 00:43:23;;;;;;;12.38;10.82;;;;;;;16.87;100.00;98858.94;5009001;28;20093;-55
2022/06/09 00:46:16;;;;;;;10.88;9.25;;;;;;;16.81;100.00;98841.69;5010603;28;20064;-55
2022/06/09 00:49:09;;;;;;;11.30;10.10;;;;;;;16.80;100.00;98836.47;5008273;28;20048;-55
2022/06/09 00:51:58;;;;;;;11.77;10.68;;;;;;;16.75;100.00;98836.78;5010098;28;20532;-55
2022/06/09 00:54:50;;;;;;;11.98;10.77;;;;;;;16.74;100.00;98823.66;5009395;28;20060;-55
2022/06/09 00:57:41;;;;;;;11.32;10.27;;;;;;;16.84;100.00;98826.56;5008154;28;20057;-55
2022/06/09 01:00:30;;;;;;;13.85;11.52;;;;;;;16.67;100.00;98817.94;5012716;28;20487;-55
2022/06/09 01:03:17;;;;;;;12.10;10.88;;;;;;;16.65;100.00;98813.69;5011904;28;20551;-55
2022/06/09 01:06:07;;;;;;;11.43;10.20;;;;;;;16.67;100.00;98828.50;5010542;28;20121;-55
2022/06/09 01:08:55;;;;;;;14.07;11.45;;;;;;;16.78;100.00;98833.94;5008892;28;20484;-55
2022/06/09 01:11:40;;;;;;;15.02;12.73;;;;;;;16.75;100.00;98835.94;5008561;28;20045;-55
2022/06/09 01:14:28;;;;;;;15.23;10.77;;;;;;;16.68;100.00;98851.34;5008991;28;20869;-55
2022/06/09 01:17:26;;;;;;;14.30;11.68;;;;;;;16.63;100.00;98863.16;5009738;28;20073;-55
2022/06/09 01:20:39;;;;;;;10.90;9.80;;;;;;;16.75;100.00;98857.94;5008149;28;20073;-56
2022/06/09 01:23:48;;;;;;;11.02;9.93;;;;;;;16.67;100.00;98864.63;5008061;28;20772;-55
2022/06/09 01:27:12;;;;;;;13.23;11.05;;;;;;;16.61;100.00;98863.25;5011126;28;20098;-57
2022/06/09 01:30:35;;;;;;;12.48;10.40;;;;;;;16.66;100.00;98869.06;5013928;28;20050;-56
2022/06/09 01:33:27;;;;;;;11.55;10.20;;;;;;;16.68;100.00;98863.72;4974558;28;20061;-55
2022/06/09 01:36:19;;;;;;;12.18;10.70;;;;;;;16.63;100.00;98871.91;5006507;28;20034;-55
2022/06/09 01:39:05;;;;;;;15.85;12.43;;;;;;;16.54;100.00;98867.22;5008946;28;20073;-55
2022/06/09 01:41:49;;;;;;;13.27;11.30;;;;;;;16.60;100.00;98865.03;5010764;28;20045;-55
2022/06/09 01:44:34;;;;;;;13.32;11.90;;;;;;;16.53;100.00;98861.09;5008956;28;20088;-55
2022/06/09 01:47:23;;;;;;;16.52;13.73;;;;;;;16.46;100.00;98854.50;5010526;28;20080;-55
2022/06/09 01:50:13;;;;;;;15.57;12.55;;;;;;;16.57;100.00;98848.53;5006723;28;20440;-55
2022/06/09 01:53:01;;;;;;;12.40;10.55;;;;;;;16.57;100.00;98844.13;5009043;28;20140;-56
2022/06/09 01:55:51;;;;;;;12.68;11.45;;;;;;;16.51;100.00;98841.00;5009432;28;20100;-55
2022/06/09 01:58:46;;;;;;;13.63;11.80;;;;;;;16.59;100.00;98841.34;5006862;28;20057;-55
2022/06/09 02:01:36;;;;;;;13.82;10.68;;;;;;;16.57;100.00;98851.16;5007676;28;20073;-55
2022/06/09 02:04:26;;;;;;;15.02;12.38;;;;;;;16.56;100.00;98855.59;5011135;28;20042;-55
2022/06/09 02:07:13;;;;;;;12.20;10.82;;;;;;;16.62;100.00;98851.72;5008260;28;20065;-55
2022/06/09 02:10:12;;;;;;;12.68;11.15;;;;;;;16.57;100.00;98848.53;5008867;28;20136;-56
2022/06/09 02:13:01;;;;;;;12.30;11.00;;;;;;;16.70;100.00;98848.56;5009615;28;20099;-55
2022/06/09 02:15:50;;;;;;;13.15;11.82;;;;;;;16.57;100.00;98853.81;5012828;28;20049;-54
2022/06/09 02:18:45;;;;;;;13.93;11.93;;;;;;;16.57;100.00;98849.41;5007720;28;20074;-57
2022/06/09 02:21:35;;;;;;;15.50;11.18;;;;;;;16.52;100.00;98848.00;5011247;28;20176;-55
2022/06/09 02:24:19;;;;;;;17.58;13.15;;;;;;;16.44;100.00;98850.25;5009247;28;20073;-55
2022/06/09 02:27:05;;;;;;;13.20;11.82;;;;;;;16.47;100.00;98860.63;5008765;28;20046;-55
2022/06/09 02:29:50;;;;;;;12.82;11.52;;;;;;;16.49;100.00;98874.63;5011797;28;20057;-55
2022/06/09 02:32:34;;;;;;;19.15;14.57;;;;;;;16.40;100.00;98885.75;5010420;28;20141;-55
2022/06/09 02:35:19;;;;;;;12.10;10.75;;;;;;;16.49;100.00;98886.03;5011926;28;20073;-55
2022/06/09 02:38:04;;;;;;;14.82;11.90;;;;;;;16.51;100.00;98889.44;5013539;28;20453;-55
2022/06/09 02:40:51;;;;;;;14.13;12.43;;;;;;;16.46;100.00;98896.78;5008745;28;20077;-55
2022/06/09 02:43:35;;;;;;;15.50;12.93;;;;;;;16.52;100.00;98896.41;5005242;28;20048;-55
2022/06/09 02:46:20;;;;;;;13.93;11.05;;;;;;;16.60;100.00;98898.56;5005705;28;20566;-55
2022/06/09 02:49:05;;;;;;;13.90;11.27;;;;;;;16.58;100.00;98896.03;5008883;28;20388;-55
2022/06/09 02:51:49;;;;;;;13.60;12.23;;;;;;;16.61;100.00;98892.34;5010630;28;20077;-55
2022/06/09 02:54:33;;;;;;;13.00;11.52;;;;;;;16.66;100.00;98899.97;5008881;28;20137;-55
2022/06/09 02:57:18;;;;;;;14.93;12.88;;;;;;;16.51;100.00;98902.66;5011023;28;20073;-55
2022/06/09 03:00:06;;;;;;;15.65;12.63;;;;;;;16.58;100.00;98903.09;5011082;28;20052;-55
2022/06/09 03:02:57;;;;;;;14.18;12.65;;;;;;;16.59;100.00;98905.63;5010640;28;20042;-55
2022/06/09 03:05:41;;;;;;;12.68;11.38;;;;;;;16.73;100.00;98912.69;5011477;28;20054;-55
2022/06/09 03:08:26;;;;;;;12.93;11.02;;;;;;;16.74;100.00;98909.09;5010110;28;20049;-55
2022/06/09 03:11:10;;;;;;;15.07;11.38;;;;;;;16.70;100.00;98904.94;5011300;28;20188;-55
2022/06/09 03:13:55;;;;;;;13.88;12.27;;;;;;;16.74;100.00;98908.25;5011207;28;20111;-55
2022/06/09 03:16:40;;;;;;;13.45;12.02;;;;;;;16.74;100.00;98916.19;5009829;28;20132;-54
2022/06/09 03:19:24;;;;;;;13.13;10.88;;;;;;;16.69;100.00;98907.69;5010041;28;20038;-55
2022/06/09 03:22:09;;;;;;;11.98;10.32;;;;;;;16.75;100.00;98908.19;5010342;28;20053;-55
2022/06/09 03:24:53;;;;;;;11.95;10.65;;;;;;;16.80;100.00;98913.16;5010028;28;20050;-54
2022/06/09 03:27:39;;;;;;;12.45;11.25;;;;;;;16.77;100.00;98916.88;5014163;28;20046;-55
2022/06/09 03:30:23;;;;;;;13.15;10.48;;;;;;;16.85;100.00;98912.88;5011711;28;20400;-55
2022/06/09 03:33:08;;;;;;;10.38;9.38;;;;;;;17.00;100.00;98915.38;5016095;28;20084;-57
2022/06/09 03:35:53;;;;;;;10.55;9.55;;;;;;;17.03;100.00;98906.41;5015928;28;20065;-55
2022/06/09 03:38:40;;;;;;;13.63;12.23;;;;;;;16.85;100.00;98912.88;5015748;28;20113;-55
2022/06/09 03:41:25;;;;;;;12.68;10.23;;;;;;;16.85;100.00;98908.44;5009954;28;20069;-55
2022/06/09 03:44:09;;;;;;;12.98;11.40;;;;;;;16.88;100.00;98915.31;5010832;28;20052;-55
2022/06/09 03:46:54;;;;;;;12.60;11.30;;;;;;;16.85;100.00;98902.31;5010458;28;20065;-54
2022/06/09 03:49:39;;;;;;;13.15;11.73;;;;;;;16.91;100.00;98907.19;5010637;28;20048;-55
2022/06/09 03:52:23;;;;;;;15.27;11.70;;;;;;;17.07;100.00;98896.47;5012905;28;20566;-54
2022/06/09 03:55:08;;;;;;;12.68;11.05;;;;;;;17.14;100.00;98909.16;5012054;28;20113;-54
2022/06/09 03:57:52;;;;;;;11.65;10.60;;;;;;;17.13;100.00;98909.28;5017500;28;20054;-54
2022/06/09 04:00:37;;;;;;;10.75;9.65;;;;;;;17.28;100.00;98887.91;5011439;28;20161;-55
2022/06/09 04:03:21;;;;;;;13.02;10.27;;;;;;;17.48;100.00;98897.19;5012631;28;20160;-54
2022/06/09 04:06:10;;;;;;;12.77;10.95;;;;;;;17.48;100.00;98902.47;5015214;28;20112;-55
2022/06/09 04:08:55;;;;;;;15.07;10.57;;;;;;;17.59;100.00;98895.59;5017498;28;20066;-55
2022/06/09 04:11:41;;;;;;;14.02;12.23;;;;;;;17.45;100.00;98904.47;5014266;28;20052;-55
2022/06/09 04:14:25;;;;;;;12.07;10.85;;;;;;;17.70;100.00;98903.66;5014308;28;20045;-55
2022/06/09 04:17:12;;;;;;;14.00;12.60;;;;;;;17.43;100.00;98894.00;5014963;28;20620;-55
2022/06/09 04:19:56;;;;;;;13.13;11.68;;;;;;;17.56;100.00;98901.94;5015023;28;20061;-57
2022/06/09 04:22:40;;;;;;;14.60;13.05;;;;;;;17.51;100.00;98901.41;5010429;28;20073;-57
2022/06/09 04:25:25;;;;;;;12.85;11.55;;;;;;;17.65;100.00;98896.03;5009270;28;20108;-56
2022/06/09 04:28:09;;;;;;;13.00;10.32;;;;;;;17.75;100.00;98891.78;5013448;28;20042;-54
2022/06/09 04:30:54;;;;;;;17.40;15.30;;;;;;;17.49;100.00;98898.03;5015558;28;20081;-54
2022/06/09 04:33:39;;;;;;;12.63;11.32;;;;;;;17.78;100.00;98889.91;5014074;28;20052;-54
2022/06/09 04:36:23;;;;;;;12.85;11.57;;;;;;;17.77;100.00;98897.00;5014998;28;20676;-54
2022/06/09 04:39:08;;;;;;;15.43;13.85;;;;;;;17.69;100.00;98897.50;5015719;28;20049;-54
2022/06/09 04:41:53;;;;;;;13.98;12.25;;;;;;;18.04;100.00;98888.13;5009657;28;20964;-54
2022/06/09 04:44:37;;;;;;;12.32;11.07;;;;;;;17.89;100.00;98885.56;5011145;28;20041;-54
2022/06/09 04:47:21;;;;;;;15.82;12.00;;;;;;;18.03;100.00;98876.66;5007949;28;20081;-55
2022/06/09 04:50:07;;;;;;;14.57;12.73;;;;;;;18.24;100.00;98881.41;5006475;28;20465;-54
2022/06/09 04:52:52;;;;;;;11.52;10.25;;;;;;;18.32;100.00;98879.03;5007149;28;20065;-55
2022/06/09 04:55:38;;;;;;;12.25;10.23;;;;;;;18.41;100.00;98881.88;5005525;28;20883;-57
2022/06/09 04:58:22;;;;;;;11.70;10.50;;;;;;;18.36;100.00;98892.00;5007960;28;20077;-55
2022/06/09 05:01:15;;;;;;;14.07;12.07;;;;;;;18.25;100.00;98886.59;5009473;28;20136;-54
2022/06/09 05:04:01;;;;;;;11.23;10.00;;;;;;;18.71;100.00;98891.22;5008676;28;20389;-64
2022/06/09 05:06:45;;;;;;;10.88;9.77;;;;;;;18.76;100.00;98894.44;5008667;28;20065;-55
2022/06/09 05:09:30;;;;;;;11.27;10.18;;;;;;;18.84;100.00;98891.19;5012999;28;20073;-55
2022/06/09 05:12:14;;;;;;;13.27;11.38;;;;;;;18.67;100.00;98890.59;5008812;28;20515;-55
2022/06/09 05:14:59;;;;;;;13.18;10.57;;;;;;;18.76;100.00;98896.25;5008320;28;20078;-55
2022/06/09 05:17:43;;;;;;;13.82;10.52;;;;;;;18.56;100.00;98897.66;5010745;28;20730;-56
2022/06/09 05:20:28;;;;;;;12.82;11.63;;;;;;;18.42;100.00;98907.41;5015220;28;20061;-55
2022/06/09 05:23:12;;;;;;;12.48;11.27;;;;;;;18.58;100.00;98904.53;5012057;28;20146;-56
2022/06/09 05:25:59;;;;;;;12.32;11.02;;;;;;;18.69;100.00;98909.06;5012502;28;20069;-55
2022/06/09 05:28:44;;;;;;;11.32;10.13;;;;;;;18.82;100.00;98896.63;5005171;28;20057;-56
2022/06/09 05:31:28;;;;;;;12.05;10.52;;;;;;;18.76;100.00;98901.53;5006426;28;20108;-55
2022/06/09 05:34:13;;;;;;;12.13;11.13;;;;;;;18.84;100.00;98901.81;5005388;28;20068;-55
2022/06/09 05:36:58;;;;;;;12.05;10.88;;;;;;;18.81;100.00;98908.19;5004945;28;20073;-55
2022/06/09 05:45:48;;;;;;;9.63;8.73;;;;;;;19.07;100.00;98914.22;5006265;28;20065;-55
2022/06/09 05:48:33;;;;;;;11.85;10.35;;;;;;;18.97;100.00;98921.19;5006952;28;20057;-55
2022/06/09 05:51:18;;;;;;;10.63;9.52;;;;;;;19.05;100.00;98915.31;5005835;28;20041;-55
2022/06/09 05:54:03;;;;;;;11.95;9.18;;;;;;;19.38;100.00;98914.59;5004982;28;20088;-55
2022/06/09 05:56:48;;;;;;;11.75;10.55;;;;;;;19.18;100.00;98921.41;5006567;28;20100;-55
2022/06/09 05:59:33;;;;;;;11.48;10.30;;;;;;;19.35;100.00;98910.38;5011563;28;20077;-55
2022/06/09 06:02:20;;;;;;;12.15;10.95;;;;;;;19.30;100.00;98922.28;5010940;28;20501;-55
2022/06/09 06:06:33;;;;;;;12.93;11.60;;;;;;;19.52;100.00;98914.41;5005157;28;20069;-55
2022/06/09 06:08:09;;;;;;;12.98;11.68;;;;;;;19.66;100.00;98920.50;5004999;28;20038;-55
2022/06/09 06:10:54;;;;;;;10.80;9.80;;;;;;;19.51;100.00;98920.69;5007989;28;20115;-55
2022/06/09 06:13:38;;;;;;;11.68;10.55;;;;;;;19.57;100.00;98925.53;5008567;28;20369;-55
2022/06/09 06:16:23;;;;;;;10.60;9.60;;;;;;;19.59;100.00;98926.25;5002495;28;20085;-56
2022/06/09 06:19:12;;;;;;;11.98;10.65;;;;;;;19.46;100.00;98928.13;5001945;28;20100;-57
2022/06/09 06:21:56;;;;;;;10.57;9.48;;;;;;;19.44;100.00;98930.06;5006455;28;20065;-56
2022/06/09 06:24:40;;;;;;;9.52;8.50;;;;;;;19.80;100.00;98931.78;5005549;28;20181;-56
2022/06/09 06:27:25;;;;;;;9.52;8.38;;;;;;;19.83;100.00;98939.50;5007749;28;20065;-56
2022/06/09 06:30:10;;;;;;;8.63;7.82;;;;;;;20.00;100.00;98932.88;5005289;28;20131;-57
2022/06/09 06:32:55;;;;;;;8.90;7.45;;;;;;;20.26;100.00;98927.34;5002622;28;20081;-56
2022/06/09 06:35:40;;;;;;;8.73;7.82;;;;;;;20.22;100.00;98931.22;5002540;28;20129;-55
2022/06/09 06:38:24;;;;;;;8.70;7.68;;;;;;;20.50;100.00;98932.50;5005428;28;20070;-55
2022/06/09 06:41:11;;;;;;;9.65;8.52;;;;;;;20.46;100.00;98925.75;5002617;28;20044;-56
2022/06/09 06:43:57;;;;;;;9.85;8.60;;;;;;;22.04;100.00;98924.22;5003538;28;20092;-56
2022/06/09 06:46:41;;;;;;;9.50;7.68;;;;;;;22.59;100.00;98926.59;5005216;28;20046;-57
2022/06/09 06:49:26;;;;;;;7.93;7.22;;;;;;;23.45;100.00;98927.69;5003289;28;20058;-56
2022/06/09 06:52:10;;;;;;;8.63;7.82;;;;;;;23.89;100.00;98930.75;5004974;28;20064;-57
2022/06/09 06:54:55;;;;;;;9.00;7.85;;;;;;;23.77;100.00;98924.72;5003210;28;20061;-57
2022/06/09 06:57:39;;;;;;;9.30;7.18;;;;;;;23.06;100.00;98935.69;5004387;28;20428;-57
2022/06/09 07:00:24;;;;;;;10.75;8.05;;;;;;;23.29;100.00;98916.72;5003881;28;20439;-57
2022/06/09 07:03:10;;;;;;;7.65;6.85;;;;;;;24.53;100.00;98934.50;5005017;28;20038;-57
2022/06/09 07:05:56;;;;;;;6.45;5.88;;;;;;;23.97;100.00;98935.38;5008851;28;20068;-58
2022/06/09 07:08:41;;;;;;;6.60;6.00;;;;;;;24.21;100.00;98933.06;5009295;28;20050;-57
2022/06/09 07:11:25;;;;;;;6.95;6.30;;;;;;;25.27;100.00;98928.13;5007085;28;20084;-58
2022/06/09 07:14:10;;;;;;;6.72;5.95;;;;;;;25.31;100.00;98928.66;5010302;28;20128;-58
2022/06/09 07:16:54;;;;;;;7.53;6.82;;;;;;;24.64;100.00;98938.81;5009306;28;20065;-58
2022/06/09 07:19:38;;;;;;;5.90;5.32;;;;;;;24.40;100.00;98940.16;5006590;28;20042;-58
2022/06/09 07:22:23;;;;;;;4.65;4.30;;;;;;;24.34;100.00;98943.44;5004300;28;20485;-59
2022/06/09 07:25:13;;;;;;;6.07;5.43;;;;;;;23.77;100.00;98946.09;5005745;28;20085;-58
2022/06/09 07:27:57;;;;;;;4.82;4.43;;;;;;;23.63;100.00;98941.19;5011798;28;20073;-58
2022/06/09 07:30:42;;;;;;;4.18;3.75;;;;;;;23.45;100.00;98945.56;5015112;28;20398;-58
2022/06/09 07:33:30;;;;;;;4.10;3.70;;;;;;;23.79;100.00;98945.97;5012533;28;20038;-59
2022/06/09 07:36:18;;;;;;;5.40;4.25;;;;;;;23.86;100.00;98951.59;5015510;28;20049;-59
2022/06/09 07:39:03;;;;;;;4.82;4.30;;;;;;;23.89;100.00;98943.28;5009543;28;20439;-59
2022/06/09 07:41:48;;;;;;;4.95;4.47;;;;;;;25.05;100.00;98956.16;5008317;28;20077;-58
2022/06/09 07:44:32;;;;;;;3.95;3.63;;;;;;;25.69;100.00;98951.63;5009908;28;20049;-59
2022/06/09 07:47:16;;;;;;;4.53;4.13;;;;;;;26.34;100.00;98949.38;5008304;28;20515;-59
2022/06/09 07:50:02;;;;;;;4.28;3.90;;;;;;;25.76;100.00;98950.00;5010563;28;20065;-58
2022/06/09 07:52:47;;;;;;;4.82;4.32;;;;;;;25.54;100.00;98945.94;5014196;28;20342;-58
2022/06/09 07:55:32;;;;;;;4.50;4.10;;;;;;;24.19;100.00;98961.78;5014252;28;20050;-58
2022/06/09 07:58:18;;;;;;;5.32;4.82;;;;;;;24.10;100.00;98959.13;5010470;28;20100;-58
2022/06/09 08:01:03;;;;;;;6.32;4.25;;;;;;;24.07;100.00;98952.25;5010476;28;20505;-58
2022/06/09 08:03:48;;;;;;;4.13;3.75;;;;;;;24.56;100.00;98955.59;5011589;28;20088;-59
2022/06/09 08:06:33;;;;;;;4.40;4.00;;;;;;;24.70;100.00;98952.47;5010057;28;20064;-59
2022/06/09 08:09:17;;;;;;;4.20;3.47;;;;;;;25.66;100.00;98954.59;5007704;28;20049;-59
2022/06/09 08:12:02;;;;;;;4.43;4.03;;;;;;;25.44;100.00;98957.75;5013862;28;20049;-56
2022/06/09 08:14:47;;;;;;;3.95;3.65;;;;;;;24.87;100.00;98956.16;5012917;28;20141;-57
2022/06/09 08:17:32;;;;;;;4.45;4.05;;;;;;;24.69;100.00;98958.78;5012752;28;20434;-58
2022/06/09 08:20:16;;;;;;;4.28;3.83;;;;;;;24.24;100.00;98955.97;5011510;28;20594;-58
2022/06/09 08:23:11;;;;;;;5.35;4.07;;;;;;;23.79;100.00;98965.53;5014897;28;20053;-58
2022/06/09 08:25:58;;;;;;;4.57;4.18;;;;;;;24.00;100.00;98964.50;5015798;28;20069;-57
2022/06/09 08:28:43;;;;;;;6.68;4.70;;;;;;;23.11;100.00;98967.34;5009540;28;20503;-57
2022/06/09 08:31:28;;;;;;;5.28;4.78;;;;;;;23.09;100.00;98964.78;5011129;28;20168;-57
2022/06/09 08:34:13;;;;;;;4.30;3.90;;;;;;;23.17;100.00;98966.78;5010388;28;20092;-57
2022/06/09 08:36:57;;;;;;;4.75;4.20;;;;;;;22.58;100.00;98965.75;5010853;28;20046;-56
2022/06/09 08:39:42;;;;;;;5.63;4.10;;;;;;;22.89;100.00;98972.88;5010168;28;20068;-55
2022/06/09 08:42:35;;;;;;;4.72;3.72;;;;;;;22.52;100.00;98966.31;5009862;28;20204;-57
2022/06/09 08:45:40;;;;;;;4.35;3.50;;;;;;;22.16;100.00;98962.31;5007616;28;20042;-57
2022/06/09 08:48:28;;;;;;;5.20;3.30;;;;;;;22.33;100.00;98971.56;5008210;28;20057;-56
2022/06/09 08:51:19;;;;;;;3.67;3.38;;;;;;;22.01;100.00;98968.97;5009852;28;20074;-57
2022/06/09 08:54:11;;;;;;;3.53;3.20;;;;;;;21.69;100.00;98975.19;5006905;28;20049;-57
2022/06/09 08:57:01;;;;;;;4.07;3.72;;;;;;;21.14;100.00;98975.25;5007625;28;20085;-56
2022/06/09 08:59:53;;;;;;;3.58;2.83;;;;;;;21.35;100.00;98980.69;5009485;28;20054;-56
2022/06/09 09:02:41;;;;;;;3.65;3.30;;;;;;;21.26;100.00;98986.72;5007194;28;20034;-55
2022/06/09 09:05:29;;;;;;;4.20;3.80;;;;;;;21.47;100.00;98978.81;5007769;28;20057;-56
2022/06/09 09:08:14;;;;;;;4.15;3.75;;;;;;;21.49;100.00;98984.84;5008923;28;20045;-57
2022/06/09 09:11:22;;;;;;;3.90;3.53;;;;;;;21.38;100.00;98984.88;5011525;28;20096;-56
2022/06/09 09:14:13;;;;;;;6.47;3.20;;;;;;;21.50;100.00;98981.22;5011259;28;20081;-57
2022/06/09 09:17:10;;;;;;;3.78;3.47;;;;;;;21.66;100.00;98988.78;5013337;28;20661;-55
2022/06/09 09:20:03;;;;;;;5.18;3.47;;;;;;;21.98;100.00;98990.53;5014137;28;20078;-56
2022/06/09 09:23:04;;;;;;;4.72;4.15;;;;;;;21.97;100.00;98981.72;5014964;28;20045;-56
2022/06/09 09:26:15;;;;;;;4.18;3.45;;;;;;;22.10;100.00;98989.50;5014198;28;20081;-56
2022/06/09 09:29:27;;;;;;;4.75;4.35;;;;;;;21.91;100.00;98987.56;5013865;28;21504;-56
2022/06/09 09:32:19;;;;;;;5.03;4.53;;;;;;;22.08;100.00;98983.44;5014880;28;20073;-56
2022/06/09 09:35:14;;;;;;;4.78;4.03;;;;;;;22.45;100.00;98991.81;5010236;28;20080;-56
2022/06/09 09:38:00;;;;;;;5.38;4.78;;;;;;;22.45;100.00;98983.78;5009967;28;20069;-56
2022/06/09 09:40:49;;;;;;;4.53;4.13;;;;;;;22.82;100.00;98983.25;5008681;28;20096;-56
2022/06/09 09:43:37;;;;;;;4.93;3.83;;;;;;;22.97;100.00;98983.72;5008620;28;20065;-57
2022/06/09 09:46:31;;;;;;;4.57;4.18;;;;;;;23.45;100.00;98990.97;5009103;28;20045;-56
2022/06/09 09:49:23;;;;;;;4.28;3.75;;;;;;;23.31;100.00;98990.41;5009340;28;20045;-56
2022/06/09 09:52:37;;;;;;;5.85;4.18;;;;;;;23.83;100.00;98995.50;5008877;28;20046;-56
2022/06/09 09:55:26;;;;;;;4.15;3.60;;;;;;;24.49;100.00;98994.66;5007571;28;20084;-56
2022/06/09 09:58:28;;;;;;;5.57;4.30;;;;;;;24.45;100.00;98995.94;5013514;28;20141;-57
2022/06/09 10:01:25;;;;;;;4.30;4.00;;;;;;;24.46;100.00;98985.09;5013249;28;20096;-57
2022/06/09 10:10:28;;;;;;;3.65;3.38;;;;;;;24.67;100.00;99003.63;5012601;28;20057;-57
2022/06/09 10:13:17;;;;;;;3.50;3.20;;;;;;;24.93;100.00;99002.94;5011889;28;20069;-57
2022/06/09 10:16:03;;;;;;;3.17;2.90;;;;;;;24.17;100.00;99008.38;5012560;28;20042;-57
2022/06/09 10:18:54;;;;;;;2.85;2.65;;;;;;;24.88;100.00;99015.91;5009691;28;20136;-57
2022/06/09 10:21:50;;;;;;;2.78;2.42;;;;;;;24.63;100.00;99010.22;5012358;28;20060;-57
2022/06/09 10:24:42;;;;;;;2.42;2.22;;;;;;;24.87;100.00;99012.41;5014734;28;20065;-57
2022/06/09 10:27:35;;;;;;;2.90;2.50;;;;;;;24.88;100.00;99011.38;5016883;28;20428;-58
2022/06/09 10:30:28;;;;;;;4.65;2.55;;;;;;;25.68;100.00;99011.59;5016717;28;20340;-58
2022/06/09 10:33:24;;;;;;;3.90;2.88;;;;;;;25.78;100.00;99009.69;5016385;28;20052;-58
2022/06/09 10:36:27;;;;;;;2.90;2.55;;;;;;;25.42;100.00;99015.03;5009243;28;20432;-58
2022/06/09 10:39:18;;;;;;;2.63;2.42;;;;;;;25.31;100.00;99009.88;5011241;28;20088;-58
2022/06/09 10:42:17;;;;;;;2.17;1.98;;;;;;;25.31;100.00;99007.22;5009171;28;20061;-58
2022/06/09 10:45:28;;;;;;;2.30;2.10;;;;;;;24.77;100.00;99016.97;5013495;28;20049;-58
2022/06/09 10:55:14;;;;;;;2.22;2.13;;;;;;;26.68;100.00;99009.47;5007985;28;20069;-59
2022/06/09 10:57:59;;;;;;;2.42;2.25;;;;;;;26.91;96.75;99001.69;5008788;28;20053;-59
2022/06/09 11:00:46;;;;;;;1.95;1.73;;;;;;;26.66;94.25;98998.91;5009870;28;20532;-59
2022/06/09 11:03:36;;;;;;;2.22;2.10;;;;;;;26.53;89.46;98996.66;5007671;28;20038;-59
2022/06/09 11:06:30;;;;;;;2.30;2.08;;;;;;;25.84;93.64;99001.06;5008611;28;20077;-59
2022/06/09 11:09:20;;;;;;;2.05;1.67;;;;;;;26.70;90.29;98980.63;5009068;28;20144;-59
2022/06/09 11:12:13;;;;;;;1.98;1.88;;;;;;;27.27;89.37;98980.84;5012165;28;20400;-59
2022/06/09 11:15:15;;;;;;;2.65;1.83;;;;;;;27.41;85.75;98982.03;5011118;28;20096;-59
2022/06/09 11:18:28;;;;;;;2.00;1.48;;;;;;;26.61;86.47;98989.66;5010529;28;20085;-60
2022/06/09 11:21:38;;;;;;;1.20;1.00;;;;;;;27.11;86.21;98987.00;5011619;28;20041;-59
2022/06/09 11:24:33;;;;;;;1.27;1.00;;;;;;;27.20;84.24;98979.81;5011310;28;20041;-59
2022/06/09 11:27:23;;;;;;;1.30;1.20;;;;;;;26.97;85.96;98984.91;5010909;28;20073;-59
2022/06/09 11:30:19;;;;;;;1.50;1.40;;;;;;;26.08;87.39;98978.91;5011206;28;20471;-59
2022/06/09 11:33:41;;;;;;;1.42;1.30;;;;;;;26.61;82.15;98982.44;5011674;28;20388;-59
2022/06/09 11:36:41;;;;;;;3.95;1.60;;;;;;;28.02;84.49;98985.28;5012987;28;20045;-59
2022/06/09 11:39:50;;;;;;;1.73;1.63;;;;;;;27.52;80.59;98984.41;5012678;28;20038;-59
2022/06/09 11:42:53;;;;;;;1.70;1.60;;;;;;;27.33;86.24;98982.88;5015396;28;20038;-62
2022/06/09 11:45:49;;;;;;;1.80;1.65;;;;;;;27.52;81.34;98979.00;5008584;28;20145;-59
2022/06/09 11:48:39;;;;;;;1.95;1.55;;;;;;;27.31;81.83;98974.13;5005682;28;20069;-59
2022/06/09 11:51:26;;;;;;;3.53;1.80;;;;;;;28.30;78.47;98967.72;5011140;28;20046;-60
2022/06/09 11:55:02;;;;;;;1.52;1.42;;;;;;;27.06;83.29;98977.72;5009611;28;20053;-58
2022/06/09 11:57:50;;;;;;;2.20;1.80;;;;;;;27.14;82.53;98969.75;4992171;28;20089;-59
2022/06/09 12:00:37;;;;;;;2.67;1.58;;;;;;;28.06;85.95;98959.72;5012340;28;20100;-59
2022/06/09 12:03:42;;;;;;;1.60;1.27;;;;;;;28.13;82.91;98958.84;5010297;28;20061;-59
2022/06/09 12:06:35;;;;;;;1.52;1.42;;;;;;;28.04;80.04;98965.25;5011308;28;20049;-60
2022/06/09 12:09:25;;;;;;;2.90;1.50;;;;;;;27.72;82.45;98963.38;5009580;28;20377;-59
2022/06/09 12:12:28;;;;;;;1.55;1.45;;;;;;;28.31;79.52;98960.50;5011314;28;20065;-59
2022/06/09 12:15:50;;;;;;;1.95;1.15;;;;;;;28.17;76.71;98954.78;5013652;28;20532;-59
2022/06/09 12:18:45;;;;;;;1.38;1.27;;;;;;;27.80;80.67;98949.97;5014478;28;20079;-58
2022/06/09 12:21:34;;;;;;;1.40;1.30;;;;;;;27.56;78.61;98952.63;5015661;28;20129;-58
2022/06/09 12:24:24;;;;;;;2.38;1.60;;;;;;;27.58;77.72;98954.16;5007983;28;20054;-59
2022/06/09 12:27:40;;;;;;;1.00;0.95;;;;;;;28.21;79.41;98952.63;5009387;28;20050;-58
2022/06/09 12:30:33;;;;;;;1.60;1.30;;;;;;;28.12;75.89;98951.78;5007638;28;20515;-58
2022/06/09 12:33:25;;;;;;;1.38;1.33;;;;;;;27.57;78.10;98946.28;5009803;28;20069;-58
2022/06/09 12:36:12;;;;;;;1.38;1.27;;;;;;;28.19;76.51;98947.41;5009632;28;20069;-58
2022/06/09 12:38:58;;;;;;;1.40;1.30;;;;;;;28.20;78.13;98948.22;5010854;28;20129;-58
2022/06/09 12:41:49;;;;;;;4.20;1.52;;;;;;;28.45;74.53;98948.19;5001598;28;20120;-58
2022/06/09 12:44:45;;;;;;;2.08;1.55;;;;;;;27.24;78.97;98954.31;5005276;28;20698;-59
2022/06/09 12:47:30;;;;;;;2.72;1.30;;;;;;;27.48;76.11;98948.09;5006320;28;20057;-58
2022/06/09 12:50:24;;;;;;;1.27;1.00;;;;;;;28.00;75.90;98949.63;5001252;28;20132;-59
2022/06/09 12:53:19;;;;;;;0.75;0.75;;;;;;;28.34;73.63;98939.47;5007161;28;20077;-58
2022/06/09 12:56:17;;;;;;;0.98;0.98;;;;;;;28.35;75.69;98934.91;5004501;28;20056;-59
2022/06/09 12:59:25;;;;;;;1.20;1.10;;;;;;;28.55;76.60;98938.06;5005297;28;20057;-58
2022/06/09 13:02:09;;;;;;;2.50;1.48;;;;;;;28.19;76.75;98933.09;5005210;28;20037;-58
2022/06/09 13:05:03;;;;;;;2.30;1.30;;;;;;;28.13;75.31;98923.03;5005465;28;20576;-58
2022/06/09 13:07:49;;;;;;;4.47;1.80;;;;;;;28.05;74.65;98918.50;5007556;28;20052;-59
2022/06/09 13:10:36;;;;;;;1.70;1.60;;;;;;;26.85;77.66;98914.56;5005647;28;20045;-58
2022/06/09 13:13:42;;;;;;;1.65;1.23;;;;;;;27.55;76.87;98919.53;5006433;28;20041;-58
2022/06/09 13:16:29;;;;;;;1.75;1.45;;;;;;;27.22;78.30;98907.94;5007536;28;20103;-57
2022/06/09 13:19:20;;;;;;;2.10;1.60;;;;;;;27.48;80.31;98915.84;5004301;28;20061;-58
2022/06/09 13:22:12;;;;;;;4.07;1.42;;;;;;;27.02;79.04;98913.56;5006414;28;20088;-57